createdAt,value
2018-06-13T00:01:56.898Z,54.49
2018-06-13T00:04:24.549Z,53.72
2018-06-13T00:06:52.198Z,54.10
2018-06-13T00:09:19.939Z,53.75
2018-06-13T00:11:47.650Z,52.95
2018-06-13T00:14:15.402Z,52.91
2018-06-13T00:16:43.109Z,52.68
2018-06-13T00:19:10.842Z,52.27
2018-06-13T00:21:38.555Z,52.34
2018-06-13T00:24:06.482Z,52.97
2018-06-13T00:26:34.213Z,53.39
2018-06-13T00:29:02.022Z,55.36
2018-06-13T00:31:29.717Z,55.70
2018-06-13T00:33:57.434Z,55.72
2018-06-13T00:36:25.126Z,54.70
2018-06-13T00:38:52.805Z,54.81
2018-06-13T00:41:20.457Z,54.96
2018-06-13T00:43:48.109Z,55.32
2018-06-13T00:46:15.822Z,54.60
2018-06-13T00:48:43.510Z,53.53
2018-06-13T00:51:11.253Z,54.23
2018-06-13T00:53:38.988Z,53.74
2018-06-13T00:56:24.237Z,54.35
2018-06-13T00:58:52.119Z,53.26
2018-06-13T01:01:19.850Z,53.79
2018-06-13T01:03:47.636Z,53.45
2018-06-13T01:06:15.468Z,52.84
2018-06-13T01:08:43.221Z,54.29
2018-06-13T01:11:10.866Z,54.78
2018-06-13T01:13:38.758Z,54.57
2018-06-13T01:16:06.388Z,54.55
2018-06-13T01:18:34.148Z,55.09
2018-06-13T01:21:01.843Z,54.24
2018-06-13T01:23:29.484Z,53.78
2018-06-13T01:25:57.207Z,52.68
2018-06-13T01:28:24.900Z,53.53
2018-06-13T01:30:52.660Z,53.77
2018-06-13T01:33:20.310Z,54.37
2018-06-13T01:35:48.109Z,52.92
2018-06-13T01:38:15.723Z,52.36
2018-06-13T01:40:43.384Z,52.43
2018-06-13T01:43:11.039Z,52.28
2018-06-13T01:45:38.751Z,52.75
2018-06-13T01:48:06.427Z,53.58
2018-06-13T01:50:34.171Z,52.06
2018-06-13T01:53:01.787Z,51.90
2018-06-13T01:55:29.529Z,52.47
2018-06-13T01:57:57.233Z,51.36
2018-06-13T02:00:24.908Z,51.29
2018-06-13T02:02:52.603Z,51.72
2018-06-13T02:05:20.298Z,51.07
2018-06-13T02:07:48.017Z,51.07
2018-06-13T02:10:15.693Z,52.72
2018-06-13T02:12:43.336Z,53.13
2018-06-13T02:15:10.972Z,52.14
2018-06-13T02:17:38.648Z,51.99
2018-06-13T02:20:06.383Z,52.32
2018-06-13T02:22:34.259Z,53.12
2018-06-13T02:25:02.012Z,52.38
2018-06-13T02:27:29.762Z,53.23
2018-06-13T02:29:57.488Z,53.28
2018-06-13T02:32:25.142Z,52.96
2018-06-13T02:34:52.802Z,52.31
2018-06-13T02:37:20.504Z,53.69
2018-06-13T02:39:48.250Z,53.52
2018-06-13T02:42:15.903Z,52.81
2018-06-13T02:44:43.731Z,54.33
2018-06-13T02:47:11.409Z,54.27
2018-06-13T02:49:38.997Z,54.55
2018-06-13T02:52:06.725Z,55.24
2018-06-13T02:54:34.427Z,55.15
2018-06-13T02:57:02.141Z,55.37
2018-06-13T02:59:29.843Z,54.89
2018-06-13T03:01:57.821Z,55.50
2018-06-13T03:04:25.523Z,55.96
2018-06-13T03:06:53.237Z,55.68
2018-06-13T03:09:21.291Z,55.16
2018-06-13T03:11:49.233Z,55.30
2018-06-13T03:14:17.000Z,55.58
2018-06-13T03:16:44.790Z,55.36
2018-06-13T03:19:12.494Z,55.33
2018-06-13T03:21:40.492Z,55.70
2018-06-13T03:24:08.222Z,54.89
2018-06-13T03:26:36.314Z,54.06
2018-06-13T03:29:04.112Z,54.67
2018-06-13T03:31:31.880Z,54.02
2018-06-13T03:33:59.612Z,55.53
2018-06-13T03:36:27.397Z,55.26
2018-06-13T03:38:55.150Z,54.61
2018-06-13T03:41:22.876Z,54.98
2018-06-13T03:43:50.618Z,54.56
2018-06-13T03:46:18.320Z,54.36
2018-06-13T03:48:45.978Z,54.81
2018-06-13T03:51:13.762Z,55.02
2018-06-13T03:53:41.446Z,55.89
2018-06-13T03:56:09.170Z,55.05
2018-06-13T03:58:36.883Z,55.39
2018-06-13T04:01:04.569Z,56.14
2018-06-13T04:03:32.309Z,56.69
2018-06-13T04:05:59.989Z,56.25
2018-06-13T04:08:27.857Z,57.28
2018-06-13T04:10:55.578Z,56.58
2018-06-13T04:13:24.153Z,56.53
2018-06-13T04:15:51.802Z,57.53
2018-06-13T04:20:54.302Z,57.64
2018-06-13T04:23:21.976Z,57.93
2018-06-13T04:25:49.731Z,58.24
2018-06-13T04:28:17.947Z,57.37
2018-06-13T04:30:45.680Z,57.76
2018-06-13T04:33:13.356Z,57.86
2018-06-13T04:35:41.164Z,57.41
2018-06-13T04:38:08.765Z,57.86
2018-06-13T04:40:36.441Z,57.98
2018-06-13T04:43:04.177Z,57.04
2018-06-13T04:45:31.805Z,56.58
2018-06-13T04:47:59.376Z,56.06
2018-06-13T04:50:27.042Z,56.97
2018-06-13T04:52:54.741Z,57.06
2018-06-13T04:55:22.365Z,57.58
2018-06-13T04:57:50.037Z,58.57
2018-06-13T05:00:17.682Z,59.21
2018-06-13T05:02:45.278Z,59.59
2018-06-13T05:05:12.837Z,58.90
2018-06-13T05:07:40.455Z,60.91
2018-06-13T05:10:08.000Z,60.07
2018-06-13T05:12:35.598Z,60.81
2018-06-13T05:15:03.272Z,61.24
2018-06-13T05:17:30.920Z,61.15
2018-06-13T05:19:58.582Z,61.74
2018-06-13T05:22:26.222Z,61.92
2018-06-13T05:24:53.901Z,63.42
2018-06-13T05:27:21.577Z,64.25
2018-06-13T05:29:49.345Z,63.38
2018-06-13T05:32:17.025Z,62.49
2018-06-13T05:34:44.633Z,61.90
2018-06-13T05:37:12.287Z,61.69
2018-06-13T05:39:39.910Z,60.92
2018-06-13T05:42:07.511Z,61.17
2018-06-13T05:44:35.307Z,60.93
2018-06-13T05:47:02.921Z,60.67
2018-06-13T05:49:30.521Z,60.84
2018-06-13T05:51:58.185Z,60.08
2018-06-13T05:54:25.762Z,60.68
2018-06-13T05:56:53.390Z,61.63
2018-06-13T05:59:20.990Z,60.55
2018-06-13T06:01:48.598Z,61.05
2018-06-13T06:04:16.250Z,59.03
2018-06-13T06:06:43.872Z,59.02
2018-06-13T06:09:12.285Z,58.62
2018-06-13T06:11:40.037Z,60.84
2018-06-13T06:14:07.658Z,60.73
2018-06-13T06:16:35.326Z,60.30
2018-06-13T06:19:03.034Z,60.38
2018-06-13T06:21:30.700Z,59.58
2018-06-13T06:23:58.311Z,58.92
2018-06-13T06:26:25.926Z,59.58
2018-06-13T06:28:53.510Z,59.39
2018-06-13T06:31:21.210Z,58.21
2018-06-13T06:33:49.186Z,57.80
2018-06-13T06:36:16.873Z,56.08
2018-06-13T06:38:44.520Z,57.79
2018-06-13T06:41:12.137Z,57.08
2018-06-13T06:43:39.752Z,56.21
2018-06-13T06:46:07.425Z,56.87
2018-06-13T06:48:35.137Z,56.53
2018-06-13T06:51:02.701Z,56.92
2018-06-13T06:53:30.281Z,56.07
2018-06-13T06:55:57.973Z,55.33
2018-06-13T06:58:25.598Z,55.93
2018-06-13T07:00:53.169Z,56.06
2018-06-13T07:03:21.873Z,55.82
2018-06-13T07:05:49.481Z,55.57
2018-06-13T07:08:17.160Z,55.20
2018-06-13T07:10:44.769Z,55.62
2018-06-13T07:13:12.405Z,53.93
2018-06-13T07:15:40.059Z,54.96
2018-06-13T07:18:07.678Z,53.23
2018-06-13T07:20:35.392Z,53.31
2018-06-13T07:23:03.090Z,52.41
2018-06-13T07:25:30.712Z,49.81
2018-06-13T07:27:58.437Z,49.27
2018-06-13T07:30:26.052Z,49.91
2018-06-13T07:32:53.684Z,49.76
2018-06-13T07:35:21.328Z,50.00
2018-06-13T07:37:48.965Z,50.48
2018-06-13T07:40:16.638Z,52.13
2018-06-13T07:42:44.324Z,52.22
2018-06-13T07:45:11.973Z,52.90
2018-06-13T07:47:39.611Z,51.24
2018-06-13T07:50:07.213Z,52.05
2018-06-13T07:52:34.869Z,52.00
2018-06-13T07:55:02.510Z,51.89
2018-06-13T07:57:30.161Z,51.13
2018-06-13T07:59:57.743Z,50.08
2018-06-13T08:02:25.412Z,49.09
2018-06-13T08:04:53.064Z,49.85
2018-06-13T08:07:20.703Z,49.00
2018-06-13T08:09:48.422Z,47.62
2018-06-13T08:12:16.066Z,46.46
2018-06-13T08:14:43.712Z,45.49
2018-06-13T08:17:11.329Z,46.37
2018-06-13T08:19:38.956Z,46.38
2018-06-13T08:22:06.584Z,44.36
2018-06-13T08:24:53.513Z,40.77
2018-06-13T08:27:21.374Z,39.89
2018-06-13T08:29:48.984Z,41.23
2018-06-13T08:32:16.730Z,39.20
2018-06-13T08:34:44.352Z,39.77
2018-06-13T08:37:12.015Z,40.92
2018-06-13T08:39:39.720Z,40.81
2018-06-13T08:42:07.466Z,42.78
2018-06-13T08:44:35.274Z,44.15
2018-06-13T08:47:03.046Z,43.71
2018-06-13T08:49:30.640Z,43.48
2018-06-13T08:51:58.248Z,44.68
2018-06-13T08:54:25.868Z,45.54
2018-06-13T08:56:53.511Z,44.42
2018-06-13T08:59:21.114Z,42.05
2018-06-13T09:01:48.741Z,42.37
2018-06-13T09:04:16.419Z,42.70
2018-06-13T09:06:44.040Z,40.96
2018-06-13T09:09:11.693Z,40.67
2018-06-13T09:11:39.292Z,39.08
2018-06-13T09:14:06.911Z,38.42
2018-06-13T09:16:34.579Z,38.63
2018-06-13T09:19:02.175Z,40.84
2018-06-13T09:21:29.872Z,44.05
2018-06-13T09:23:57.472Z,45.19
2018-06-13T09:26:25.143Z,48.02
2018-06-13T09:28:52.825Z,49.60
2018-06-13T09:31:20.523Z,48.48
2018-06-13T09:33:48.110Z,48.84
2018-06-13T09:36:15.875Z,46.32
2018-06-13T09:38:43.438Z,46.61
2018-06-13T09:41:11.132Z,46.39
2018-06-13T09:43:38.709Z,43.79
2018-06-13T09:46:11.864Z,44.10
2018-06-13T09:48:34.016Z,43.10
2018-06-13T09:51:01.741Z,42.04
2018-06-13T09:53:29.616Z,41.84
2018-06-13T09:55:57.356Z,39.91
2018-06-13T09:58:25.046Z,38.34
2018-06-13T10:00:58.623Z,39.02
2018-06-13T10:03:27.388Z,38.51
2018-06-13T10:05:55.342Z,39.86
2018-06-13T10:08:23.300Z,36.53
2018-06-13T10:10:51.391Z,35.46
2018-06-13T10:13:19.110Z,38.53
2018-06-13T10:15:46.822Z,38.03
2018-06-13T10:18:14.768Z,37.61
2018-06-13T10:20:42.863Z,36.56
2018-06-13T10:23:10.750Z,37.39
2018-06-13T10:25:38.799Z,36.35
2018-06-13T10:28:07.732Z,36.04
2018-06-13T10:30:35.874Z,35.01
2018-06-13T10:33:03.827Z,35.59
2018-06-13T10:35:31.934Z,36.42
2018-06-13T10:38:00.810Z,35.35
2018-06-13T10:40:28.880Z,35.67
2018-06-13T10:42:58.896Z,34.91
2018-06-13T10:45:27.196Z,33.71
2018-06-13T10:47:56.422Z,32.82
2018-06-13T10:50:24.510Z,34.69
2018-06-13T10:52:53.236Z,34.47
2018-06-13T10:55:21.603Z,34.46
2018-06-13T10:57:50.092Z,37.40
2018-06-13T11:00:18.378Z,37.88
2018-06-13T11:02:46.593Z,37.06
2018-06-13T11:05:14.950Z,36.19
2018-06-13T11:07:43.018Z,38.72
2018-06-13T11:10:11.454Z,37.75
2018-06-13T11:12:39.661Z,36.13
2018-06-13T11:15:07.674Z,36.98
2018-06-13T11:17:35.763Z,36.87
2018-06-13T11:20:05.006Z,35.03
2018-06-13T11:22:33.088Z,34.81
2018-06-13T11:25:01.040Z,34.24
2018-06-13T11:27:29.070Z,36.15
2018-06-13T11:29:57.312Z,33.00
2018-06-13T11:32:25.432Z,34.24
2018-06-13T11:34:57.796Z,33.73
2018-06-13T11:37:26.876Z,33.63
2018-06-13T11:39:55.636Z,35.40
2018-06-13T11:42:23.673Z,33.28
2018-06-13T11:44:51.807Z,34.30
2018-06-13T11:47:19.737Z,33.78
2018-06-13T11:49:47.647Z,34.56
2018-06-13T11:52:15.787Z,34.48
2018-06-13T11:54:43.725Z,34.77
2018-06-13T11:57:11.799Z,36.71
2018-06-13T11:59:39.879Z,36.48
2018-06-13T12:02:08.345Z,37.71
2018-06-13T12:04:36.580Z,37.02
2018-06-13T12:07:04.838Z,36.44
2018-06-13T12:09:32.746Z,35.51
2018-06-13T12:12:00.733Z,33.97
2018-06-13T12:14:28.661Z,31.84
2018-06-13T12:16:56.945Z,33.63
2018-06-13T12:19:25.082Z,36.80
2018-06-13T12:21:53.102Z,36.15
2018-06-13T12:24:21.066Z,37.20
2018-06-13T12:26:48.898Z,37.22
2018-06-13T12:29:16.985Z,37.65
2018-06-13T12:31:44.893Z,35.93
2018-06-13T12:34:12.913Z,37.40
2018-06-13T12:36:40.892Z,37.39
2018-06-13T12:39:10.342Z,36.89
2018-06-13T12:41:38.232Z,35.68
2018-06-13T12:44:06.107Z,36.19
2018-06-13T12:46:34.821Z,36.10
2018-06-13T12:49:02.860Z,39.55
2018-06-13T12:51:30.905Z,39.15
2018-06-13T12:53:58.720Z,38.55
2018-06-13T12:56:26.365Z,37.86
2018-06-13T12:58:54.090Z,38.91
2018-06-13T13:01:21.740Z,38.56
2018-06-13T13:03:49.359Z,38.50
2018-06-13T13:06:17.067Z,40.17
2018-06-13T13:08:44.726Z,41.38
2018-06-13T13:11:12.447Z,40.49
2018-06-13T13:13:40.063Z,39.28
2018-06-13T13:16:07.724Z,37.29
2018-06-13T13:18:35.366Z,36.24
2018-06-13T13:21:03.001Z,35.59
2018-06-13T13:23:30.593Z,35.54
2018-06-13T13:25:58.287Z,33.63
2018-06-13T13:28:25.931Z,33.29
2018-06-13T13:30:53.679Z,27.49
2018-06-13T13:33:21.372Z,28.23
2018-06-13T13:35:49.045Z,30.72
2018-06-13T13:38:16.669Z,34.10
2018-06-13T13:40:44.911Z,34.66
2018-06-13T13:43:12.517Z,33.72
2018-06-13T13:45:40.407Z,31.14
2018-06-13T13:48:08.008Z,33.24
2018-06-13T13:50:35.675Z,35.64
2018-06-13T13:53:03.465Z,35.61
2018-06-13T13:55:31.337Z,34.50
2018-06-13T13:57:59.033Z,36.86
2018-06-13T14:00:26.650Z,37.68
2018-06-13T14:02:54.278Z,38.39
2018-06-13T14:05:21.968Z,39.01
2018-06-13T14:07:49.577Z,39.00
2018-06-13T14:10:17.225Z,38.91
2018-06-13T14:12:44.900Z,37.64
2018-06-13T14:15:12.610Z,38.05
2018-06-13T14:17:40.244Z,35.48
2018-06-13T14:20:07.988Z,36.15
2018-06-13T14:22:36.231Z,38.38
2018-06-13T14:25:04.037Z,41.42
2018-06-13T14:27:32.044Z,42.45
2018-06-13T14:29:59.741Z,41.49
2018-06-13T14:32:27.426Z,41.99
2018-06-13T14:34:55.041Z,41.81
2018-06-13T14:37:22.858Z,41.80
2018-06-13T14:39:50.874Z,43.11
2018-06-13T14:42:19.242Z,42.12
2018-06-13T14:44:46.951Z,41.36
2018-06-13T14:47:15.707Z,40.38
2018-06-13T14:49:43.371Z,39.02
2018-06-13T14:52:11.063Z,38.40
2018-06-13T14:54:38.785Z,38.07
2018-06-13T14:57:06.561Z,39.60
2018-06-13T14:59:34.318Z,37.08
2018-06-13T15:02:01.990Z,39.40
2018-06-13T15:04:32.066Z,39.07
2018-06-13T15:07:00.197Z,42.18
2018-06-13T15:09:27.882Z,43.07
2018-06-13T15:11:55.560Z,43.65
2018-06-13T15:14:23.364Z,43.24
2018-06-13T15:16:51.109Z,43.67
2018-06-13T15:19:18.850Z,47.04
2018-06-13T15:21:46.732Z,46.94
2018-06-13T15:24:14.778Z,47.37
2018-06-13T15:26:42.771Z,46.87
2018-06-13T15:29:10.854Z,46.51
2018-06-13T15:31:38.716Z,47.09
2018-06-13T15:34:06.540Z,46.31
2018-06-13T15:36:34.518Z,45.92
2018-06-13T15:39:02.714Z,44.69
2018-06-13T15:41:30.585Z,44.29
2018-06-13T15:43:58.697Z,46.67
2018-06-13T15:46:26.880Z,47.45
2018-06-13T15:48:57.469Z,47.20
2018-06-13T15:51:26.889Z,47.88
2018-06-13T15:53:54.750Z,48.13
2018-06-13T15:56:23.350Z,48.45
2018-06-13T15:58:51.263Z,49.35
2018-06-13T16:01:19.432Z,50.05
2018-06-13T16:03:47.425Z,49.92
2018-06-13T16:06:15.367Z,49.39
2018-06-13T16:08:43.259Z,49.48
2018-06-13T16:11:15.469Z,51.31
2018-06-13T16:13:43.489Z,52.27
2018-06-13T16:16:11.263Z,52.20
2018-06-13T16:18:39.159Z,51.47
2018-06-13T16:21:07.106Z,50.75
2018-06-13T16:23:35.027Z,49.87
2018-06-13T16:26:02.824Z,52.32
2018-06-13T16:28:31.056Z,52.98
2018-06-13T16:30:58.942Z,53.25
2018-06-13T16:33:26.670Z,52.18
2018-06-13T16:35:54.585Z,51.66
2018-06-13T16:38:22.258Z,50.53
2018-06-13T16:40:50.224Z,50.70
2018-06-13T16:43:18.166Z,51.26
2018-06-13T16:45:46.095Z,52.34
2018-06-13T16:48:13.989Z,53.59
2018-06-13T16:50:58.239Z,54.67
2018-06-13T16:53:58.617Z,53.93
2018-06-13T16:56:26.593Z,53.73
2018-06-13T16:58:55.541Z,54.45
2018-06-13T17:01:23.791Z,53.80
2018-06-13T17:03:53.087Z,53.56
2018-06-13T17:06:21.291Z,53.90
2018-06-13T17:08:49.194Z,53.22
2018-06-13T17:11:18.186Z,54.20
2018-06-13T17:13:46.397Z,55.10
2018-06-13T17:16:14.550Z,55.74
2018-06-13T17:18:42.701Z,56.91
2018-06-13T17:21:10.606Z,57.14
2018-06-13T17:23:38.633Z,57.35
2018-06-13T17:26:06.741Z,56.21
2018-06-13T17:28:34.909Z,56.55
2018-06-13T17:31:03.266Z,56.94
2018-06-13T17:33:32.031Z,57.50
2018-06-13T17:35:59.958Z,57.52
2018-06-13T17:38:28.093Z,57.26
2018-06-13T17:40:57.492Z,58.17
2018-06-13T17:43:25.365Z,58.96
2018-06-13T17:45:53.385Z,58.05
2018-06-13T17:48:21.240Z,58.34
2018-06-13T17:50:50.136Z,58.60
2018-06-13T17:53:17.974Z,60.04
2018-06-13T17:55:46.118Z,60.67
2018-06-13T17:58:14.084Z,60.88
2018-06-13T18:00:42.212Z,60.59
2018-06-13T18:03:10.543Z,61.23
2018-06-13T18:05:39.937Z,60.30
2018-06-13T18:08:08.376Z,60.54
2018-06-13T18:10:36.394Z,61.20
2018-06-13T18:13:04.308Z,61.96
2018-06-13T18:15:32.398Z,61.67
2018-06-13T18:18:00.406Z,62.06
2018-06-13T18:20:28.118Z,61.57
2018-06-13T18:22:55.966Z,61.35
2018-06-13T18:25:23.619Z,60.08
2018-06-13T18:27:51.475Z,61.34
2018-06-13T18:30:19.187Z,61.38
2018-06-13T18:32:47.568Z,61.93
2018-06-13T18:35:15.236Z,61.15
2018-06-13T18:37:43.022Z,61.23
2018-06-13T18:40:10.729Z,60.62
2018-06-13T18:42:38.466Z,60.12
2018-06-13T18:45:06.586Z,59.87
2018-06-13T18:47:34.523Z,61.91
2018-06-13T18:50:02.374Z,61.36
2018-06-13T18:52:30.166Z,61.06
2018-06-13T18:54:58.005Z,60.85
2018-06-13T18:57:25.733Z,62.17
2018-06-13T18:59:53.436Z,62.66
2018-06-13T19:02:21.139Z,62.04
2018-06-13T19:04:48.930Z,62.23
2018-06-13T19:07:16.872Z,61.73
2018-06-13T19:09:44.705Z,62.43
2018-06-13T19:12:12.413Z,61.69
2018-06-13T19:14:40.089Z,61.91
2018-06-13T19:17:07.797Z,62.39
2018-06-13T19:19:35.731Z,62.29
2018-06-13T19:22:03.519Z,62.04
2018-06-13T19:24:31.369Z,62.71
2018-06-13T19:26:59.131Z,62.39
2018-06-13T19:29:27.014Z,62.73
2018-06-13T19:31:54.778Z,62.71
2018-06-13T19:34:22.706Z,63.09
2018-06-13T19:36:50.425Z,63.11
2018-06-13T19:39:18.191Z,63.59
2018-06-13T19:41:46.078Z,63.45
2018-06-13T19:44:13.697Z,63.84
2018-06-13T19:46:41.428Z,64.66
2018-06-13T19:49:09.138Z,63.87
2018-06-13T19:51:36.869Z,64.36
2018-06-13T19:54:10.339Z,64.59
2018-06-13T19:56:38.018Z,63.96
2018-06-13T19:59:06.021Z,63.69
2018-06-13T20:01:33.671Z,64.30
2018-06-13T20:04:06.994Z,63.49
2018-06-13T20:06:37.545Z,63.68
2018-06-13T20:09:08.275Z,63.28
2018-06-13T20:11:36.104Z,63.55
2018-06-13T20:14:09.666Z,63.63
2018-06-13T20:16:51.456Z,64.09
2018-06-13T20:19:25.079Z,64.82
2018-06-13T20:21:54.100Z,64.46
2018-06-13T20:24:21.741Z,64.27
2018-06-13T20:26:55.138Z,64.31
2018-06-13T20:29:28.601Z,65.21
2018-06-13T20:31:56.343Z,64.11
2018-06-13T20:34:23.974Z,65.31
2018-06-13T20:36:51.650Z,65.34
2018-06-13T20:39:19.318Z,64.43
2018-06-13T20:41:46.980Z,65.38
2018-06-13T20:44:14.684Z,64.51
2018-06-13T20:46:42.988Z,64.37
2018-06-13T20:49:10.714Z,64.37
2018-06-13T20:51:38.436Z,64.58
2018-06-13T20:54:06.794Z,64.72
2018-06-13T20:56:35.664Z,64.87
2018-06-13T20:59:03.597Z,65.84
2018-06-13T21:01:31.286Z,65.35
2018-06-13T21:03:59.521Z,65.01
2018-06-13T21:06:28.320Z,64.07
2018-06-13T21:08:56.098Z,64.05
2018-06-13T21:11:23.838Z,64.67
2018-06-13T21:13:51.524Z,64.99
2018-06-13T21:16:19.350Z,64.83
2018-06-13T21:18:47.520Z,65.04
2018-06-13T21:21:15.215Z,65.47
2018-06-13T21:23:42.904Z,65.31
2018-06-13T21:26:10.542Z,65.80
2018-06-13T21:28:38.259Z,65.08
2018-06-13T21:31:05.917Z,64.98
2018-06-13T21:33:33.536Z,65.39
2018-06-13T21:36:01.437Z,64.73
2018-06-13T21:38:29.308Z,64.55
2018-06-13T21:40:56.928Z,65.03
2018-06-13T21:43:24.572Z,65.70
2018-06-13T21:45:52.281Z,66.15
2018-06-13T21:48:19.957Z,65.43
2018-06-13T21:50:47.676Z,64.45
2018-06-13T21:53:15.331Z,64.94
2018-06-13T21:55:42.969Z,65.39
2018-06-13T21:58:10.565Z,64.64
2018-06-13T22:00:38.207Z,64.93
2018-06-13T22:03:05.855Z,65.58
2018-06-13T22:05:34.123Z,64.96
2018-06-13T22:08:01.843Z,65.22
2018-06-13T22:10:29.438Z,64.83
2018-06-13T22:12:57.075Z,65.32
2018-06-13T22:15:26.343Z,66.06
2018-06-13T22:17:55.619Z,64.92
2018-06-13T22:20:23.429Z,65.16
2018-06-13T22:22:51.339Z,63.88
2018-06-13T22:25:18.963Z,64.65
2018-06-13T22:27:46.610Z,64.33
2018-06-13T22:30:14.445Z,64.41
2018-06-13T22:32:42.170Z,63.94
2018-06-13T22:35:09.838Z,63.53
2018-06-13T22:37:37.526Z,63.99
2018-06-13T22:40:05.543Z,63.71
2018-06-13T22:42:33.259Z,63.99
2018-06-13T22:45:00.910Z,64.28
2018-06-13T22:47:28.595Z,64.42
2018-06-13T22:49:56.330Z,64.87
2018-06-13T22:52:25.134Z,64.28
2018-06-13T22:54:52.953Z,63.36
2018-06-13T22:57:20.562Z,64.14
2018-06-13T22:59:48.226Z,64.52
2018-06-13T23:02:15.873Z,64.41
2018-06-13T23:04:43.474Z,64.07
2018-06-13T23:07:11.125Z,63.52
2018-06-13T23:09:39.089Z,63.06
2018-06-13T23:12:06.691Z,63.68
2018-06-13T23:14:34.461Z,63.49
2018-06-13T23:17:02.103Z,63.62
2018-06-13T23:19:29.873Z,63.30
2018-06-13T23:21:57.569Z,63.86
2018-06-13T23:24:25.265Z,62.75
2018-06-13T23:26:52.968Z,63.62
2018-06-13T23:29:20.607Z,62.88
2018-06-13T23:31:48.255Z,63.58
2018-06-13T23:34:15.871Z,62.92
2018-06-13T23:36:43.549Z,62.78
2018-06-13T23:39:11.326Z,61.73
2018-06-13T23:41:39.011Z,61.73
2018-06-13T23:44:06.668Z,61.69
2018-06-13T23:46:34.622Z,61.36
2018-06-13T23:49:02.526Z,62.43
2018-06-13T23:51:30.101Z,62.24
2018-06-13T23:53:57.804Z,62.20
2018-06-13T23:56:25.494Z,62.44
2018-06-13T23:58:53.221Z,61.68
